Airfield :
LOGIN :

Register | Disclaimer

   EN    FR    IT 

 










Legend :    VFR   Marginal VFR   IFR   Intensive IFR   Very Intensive IFR
Visi :
Ceiling :
>= 8 km
>= 3000ft
5 to 8 km
1000 to 3000 ft
1500m to 5 km
500 to 1000 ft
800 to 1500m
200 to 500 ft
< 800m
< 200 ft
Symbols :   Thunderstorms  Fog  Heavy snow  Heavy precipitations  Wind > 20 kt
SIGMETs :     Misc.  Thunderstorms  Icing  Turbulence  Mountain Waves  Volcanic Ashes






- Airport Elevation : 538 ft
- IATA code : TNF


LFPN - Toussus Le Noble

CURRENT METAR :
  • 070200Z AUTO 32004KT 0600 R25R/0700N FZFG VV/// M00/M00 Q1021

EXPIRED METARs :
  • 070130Z AUTO 32006KT 0500 R25R/0600N FZFG VV/// M01/M01 Q1021
  • 070100Z AUTO 32004KT 0300 R25R/0375N FZFG VV/// M01/M01 Q1021
  • 070030Z AUTO 34004KT 0350 R25R/0450N FZFG VV/// M01/M02 Q1021
  • 070000Z AUTO 32003KT 0500 0450 R25R/1100U FZFG VV/// M01/M01 Q1021
  • 062330Z AUTO 32003KT 2100 0900 R25R/P2000 BCFG NSC M01/M01 Q1021
  • 062300Z AUTO 33003KT 3100 BR NSC M01/M01 Q1021

TAF AMD TAF LFPN
Valid from the 06 at 18:00 until the 07 at 03:00 UTC


061840Z 0618/0703 01003KT 7000 FEW010 SCT040
BECMG 0618/0621 3000 BR BKN004
TEMPO 0621/0703 0500 FG VV///
ATIS : +33 1 39 56 54 70



MET'MAP, your aeronautical weather chart ! - Copyright ORBIFLY December 2007 - Disclaimer

ORBIFLY MET'MAP TEAM :

Programming & Development : Alexandra Zaïnal
Original concept : Baudouin d'Aumeries
Technical & hardware support : Manuel Goepfert
Assistance : Marc-Olivier Méhu




SOURCES & CREDITS :

   NOAA